Time;durP1;ratioP1;P1;durP2;ratioP2;P2;SDS_P1;SDS_P2;PMS_P1;PMS_P2;Temp;Humidity;BMP_temperature;BMP_pressure;BME280_temperature;BME280_humidity;BME280_pressure;Samples;Min_cycle;Max_cycle;Signal;HPM_P1;HPM_P2
2023/09/20 00:00:19;;;;;;;14.50;8.60;;;;;;;18.56;80.16;100918.29;106141;1261;72424;-89
2023/09/20 00:02:49;;;;;;;17.20;7.80;;;;;;;18.60;80.93;100918.21;106042;1260;61651;-85
2023/09/20 00:05:19;;;;;;;15.80;7.90;;;;;;;18.78;80.91;100918.37;106212;1260;61352;-88
2023/09/20 00:07:54;;;;;;;13.70;7.90;;;;;;;19.01;80.83;100913.19;105913;1258;73577;-85
2023/09/20 00:10:22;;;;;;;16.20;8.00;;;;;;;19.24;80.28;100912.17;105941;1263;68724;-87
2023/09/20 00:12:50;;;;;;;15.20;7.00;;;;;;;19.56;79.20;100908.91;105921;1262;72487;-88
2023/09/20 00:15:17;;;;;;;11.70;6.40;;;;;;;19.88;77.57;100904.55;106044;1257;61665;-88
2023/09/20 00:17:44;;;;;;;11.30;6.40;;;;;;;20.27;75.09;100905.73;105874;1258;61265;-86
2023/09/20 00:20:14;;;;;;;12.20;6.80;;;;;;;20.50;73.12;100905.91;105880;1257;74307;-87
2023/09/20 00:22:43;;;;;;;15.40;7.20;;;;;;;20.79;70.83;100906.50;106071;1262;68015;-87
2023/09/20 00:25:11;;;;;;;18.20;7.20;;;;;;;21.13;67.92;100901.34;106091;1260;71074;-85
2023/09/20 00:27:39;;;;;;;10.50;7.10;;;;;;;21.18;67.12;100907.50;106116;1263;61638;-86
2023/09/20 00:30:10;;;;;;;12.10;7.10;;;;;;;21.44;65.60;100909.34;106512;1257;60505;-84
2023/09/20 00:32:39;;;;;;;13.90;7.60;;;;;;;21.70;63.67;100911.30;106023;1257;74492;-86
2023/09/20 00:35:11;;;;;;;12.50;7.30;;;;;;;21.89;61.88;100906.98;106160;1261;67886;-84
2023/09/20 00:37:42;;;;;;;10.80;7.40;;;;;;;22.02;60.50;100906.05;105943;1257;71335;-87
2023/09/20 00:40:18;;;;;;;13.90;6.60;;;;;;;22.17;59.20;100908.00;106097;1258;61147;-89
2023/09/20 00:42:46;;;;;;;12.50;6.80;;;;;;;22.35;57.70;100909.86;105957;1258;61260;-86
2023/09/20 00:45:13;;;;;;;12.50;6.10;;;;;;;22.54;56.02;100909.04;106022;1257;74360;-88
2023/09/20 00:47:47;;;;;;;12.80;6.40;;;;;;;22.64;55.01;100912.36;105975;1262;68494;-88
2023/09/20 00:50:14;;;;;;;13.00;6.00;;;;;;;22.69;54.36;100907.30;105825;1263;73104;-87
2023/09/20 00:52:42;;;;;;;14.10;6.80;;;;;;;22.84;53.62;100905.34;105938;1263;61362;-85
2023/09/20 00:55:11;;;;;;;12.60;6.00;;;;;;;22.97;52.90;100911.73;106053;1263;61130;-87
2023/09/20 00:57:38;;;;;;;9.40;6.50;;;;;;;23.09;52.07;100912.26;106082;1263;74514;-85
2023/09/20 01:00:19;;;;;;;10.80;6.60;;;;;;;23.08;51.75;100907.67;106118;1258;67249;-87
2023/09/20 01:02:51;;;;;;;11.80;7.00;;;;;;;23.06;51.58;100908.41;106379;1260;72474;-87
2023/09/20 01:05:22;;;;;;;14.70;5.90;;;;;;;23.06;51.29;100910.02;105903;1265;61199;-85
2023/09/20 01:07:50;;;;;;;11.00;6.10;;;;;;;23.14;50.99;100908.91;105899;1257;60986;-86
2023/09/20 01:10:22;;;;;;;9.30;6.00;;;;;;;23.15;50.69;100903.20;106115;1260;74551;-88
2023/09/20 01:12:54;;;;;;;;;;;;;;;23.24;50.31;100904.81;106481;1257;68741;-86
2023/09/20 01:15:21;;;;;;;11.00;5.60;;;;;;;23.31;50.13;100902.14;106332;1257;71388;-87
2023/09/20 01:17:50;;;;;;;14.20;6.00;;;;;;;23.30;50.02;100898.05;106603;1257;61355;-87
2023/09/20 01:20:19;;;;;;;10.70;5.70;;;;;;;23.40;49.47;100901.67;106126;1263;61170;-88
2023/09/20 01:22:47;;;;;;;11.30;5.90;;;;;;;23.39;49.21;100900.60;106048;1263;74601;-86
2023/09/20 01:25:35;;;;;;;10.60;5.90;;;;;;;23.33;49.36;100908.98;106006;1258;68789;-87
2023/09/20 01:28:06;;;;;;;7.50;5.50;;;;;;;23.36;49.09;100908.08;106164;1260;72748;-86
2023/09/20 01:30:36;;;;;;;15.20;5.90;;;;;;;23.36;48.92;100917.74;105991;1257;61351;-88
2023/09/20 01:33:05;;;;;;;14.20;6.60;;;;;;;23.38;48.66;100914.34;105953;1263;61417;-86
2023/09/20 01:35:32;;;;;;;11.30;6.50;;;;;;;23.46;48.32;100911.38;106143;1257;73307;-88
2023/09/20 01:37:59;;;;;;;8.90;5.70;;;;;;;23.48;48.29;100913.84;106136;1257;68451;-85
2023/09/20 01:40:26;;;;;;;9.70;5.30;;;;;;;23.53;48.13;100917.09;106018;1257;71050;-88
2023/09/20 01:42:54;;;;;;;12.10;5.80;;;;;;;23.52;48.18;100916.11;106011;1257;61999;-85
2023/09/20 01:45:21;;;;;;;12.00;5.90;;;;;;;23.51;48.02;100918.23;105956;1257;61199;-86
2023/09/20 01:47:52;;;;;;;9.90;5.70;;;;;;;23.47;48.03;100918.45;106127;1261;74689;-86
2023/09/20 01:50:20;;;;;;;13.00;6.80;;;;;;;23.44;48.15;100918.91;105953;1258;67349;-88
2023/09/20 01:52:52;;;;;;;11.50;5.90;;;;;;;23.45;47.96;100916.15;105868;1257;72495;-88
2023/09/20 01:55:23;;;;;;;8.70;5.80;;;;;;;23.43;47.88;100921.05;106788;1257;61177;-86
2023/09/20 01:57:51;;;;;;;13.70;6.20;;;;;;;23.38;47.90;100920.90;106013;1257;61340;-88
2023/09/20 02:00:22;;;;;;;10.90;6.00;;;;;;;23.44;47.79;100924.27;105881;1261;73255;-88
2023/09/20 02:02:50;;;;;;;11.30;6.00;;;;;;;23.43;47.59;100919.43;106145;1257;68780;-86
2023/09/20 02:05:18;;;;;;;11.40;6.40;;;;;;;23.36;47.74;100922.35;105996;1258;71054;-86
2023/09/20 02:07:46;;;;;;;10.50;5.60;;;;;;;23.32;47.72;100921.85;106118;1257;61231;-86
2023/09/20 02:10:16;;;;;;;10.80;6.40;;;;;;;23.28;47.90;100922.44;105945;1257;61057;-86
2023/09/20 02:12:45;;;;;;;11.90;6.70;;;;;;;23.29;47.78;100921.49;105986;1257;74509;-88
2023/09/20 02:15:14;;;;;;;11.50;6.10;;;;;;;23.29;47.72;100924.64;105896;1263;67665;-88
2023/09/20 02:17:41;;;;;;;10.10;5.90;;;;;;;23.36;47.49;100926.73;106031;1262;71806;-88
2023/09/20 02:20:09;;;;;;;12.40;6.40;;;;;;;23.35;47.40;100925.29;105999;1260;61311;-86
2023/09/20 02:22:37;;;;;;;9.50;6.00;;;;;;;23.40;47.20;100925.89;105967;1262;61237;-85
2023/09/20 02:25:12;;;;;;;10.10;6.00;;;;;;;23.40;47.17;100927.40;105975;1258;73235;-85
2023/09/20 02:27:43;;;;;;;8.70;6.70;;;;;;;23.36;47.21;100930.55;105882;1257;69147;-85
2023/09/20 02:30:14;;;;;;;12.50;6.10;;;;;;;23.32;47.46;100929.64;106081;1261;72482;-88
2023/09/20 02:32:42;;;;;;;7.60;5.90;;;;;;;23.29;47.36;100923.91;106049;1257;61346;-86
2023/09/20 02:35:10;;;;;;;11.60;6.00;;;;;;;23.44;47.03;100920.26;106147;1257;61324;-86
2023/09/20 02:37:37;;;;;;;10.20;5.60;;;;;;;23.45;46.67;100924.91;106020;1257;74430;-86
2023/09/20 02:40:07;;;;;;;10.00;5.60;;;;;;;23.47;46.54;100931.17;106089;1261;68682;-87
2023/09/20 02:42:44;;;;;;;8.10;5.20;;;;;;;23.50;46.47;100928.73;106012;1257;73867;-85
2023/09/20 02:45:21;;;;;;;11.30;5.80;;;;;;;23.45;46.48;100927.55;105969;1257;61241;-88
2023/09/20 02:47:49;;;;;;;9.70;5.20;;;;;;;23.45;46.58;100927.95;106548;1257;61362;-87
2023/09/20 02:50:18;;;;;;;9.70;5.50;;;;;;;23.37;46.52;100927.25;106185;1257;73207;-86
2023/09/20 02:52:46;;;;;;;11.20;5.40;;;;;;;23.37;46.55;100926.59;106017;1263;67609;-85
2023/09/20 02:55:13;;;;;;;9.00;5.80;;;;;;;23.34;46.66;100928.45;106189;1257;71205;-85
2023/09/20 02:57:41;;;;;;;8.90;5.40;;;;;;;23.39;46.47;100929.14;106049;1257;61235;-87
2023/09/20 03:00:15;;;;;;;11.30;5.40;;;;;;;23.47;46.45;100926.49;106170;1257;60090;-86
2023/09/20 03:02:49;;;;;;;9.80;5.20;;;;;;;23.45;46.26;100919.66;106126;1263;74658;-88
2023/09/20 03:05:27;;;;;;;9.60;5.30;;;;;;;23.43;46.26;100920.13;106053;1257;67334;-85
2023/09/20 03:07:55;;;;;;;9.50;5.20;;;;;;;23.42;46.07;100926.60;105914;1257;72444;-86
2023/09/20 03:10:23;;;;;;;11.00;5.40;;;;;;;23.43;46.17;100928.91;106190;1260;61228;-86
2023/09/20 03:12:54;;;;;;;6.90;5.00;;;;;;;23.44;46.19;100932.77;106093;1259;61352;-87
2023/09/20 03:15:23;;;;;;;6.80;4.80;;;;;;;23.41;46.35;100931.51;106234;1261;73142;-87
2023/09/20 03:18:05;;;;;;;7.60;5.30;;;;;;;23.44;46.09;100934.53;106338;1256;68520;-84
2023/09/20 03:20:32;;;;;;;7.90;5.00;;;;;;;23.57;45.96;100932.20;106792;1260;72666;-85
2023/09/20 03:23:04;;;;;;;8.60;5.00;;;;;;;23.61;45.79;100934.69;105935;1260;61289;-88
2023/09/20 03:25:36;;;;;;;8.50;4.90;;;;;;;23.65;45.79;100933.25;105952;1257;61231;-86
2023/09/20 03:28:08;;;;;;;8.20;5.40;;;;;;;23.62;45.72;100930.31;106096;1257;74799;-88
2023/09/20 03:30:37;;;;;;;6.60;4.60;;;;;;;23.57;45.95;100928.52;106320;1257;68706;-86
2023/09/20 03:33:05;;;;;;;12.40;5.20;;;;;;;23.59;45.86;100929.77;106063;1257;72973;-87
2023/09/20 03:35:34;;;;;;;11.90;5.20;;;;;;;23.67;45.65;100934.45;106008;1264;61372;-88
2023/09/20 03:38:01;;;;;;;6.60;4.70;;;;;;;23.68;45.63;100929.76;105946;1259;61260;-87
2023/09/20 03:40:29;;;;;;;8.00;5.20;;;;;;;23.68;45.65;100930.50;105946;1259;75051;-87
2023/09/20 03:42:57;;;;;;;10.60;5.10;;;;;;;23.67;45.69;100929.25;106017;1260;67226;-87
2023/09/20 03:45:28;;;;;;;9.20;5.40;;;;;;;23.61;45.82;100930.63;106072;1262;72781;-86
2023/09/20 03:47:57;;;;;;;7.60;5.30;;;;;;;23.66;45.89;100929.09;105954;1257;61764;-87
2023/09/20 03:50:25;;;;;;;8.00;5.10;;;;;;;23.68;45.74;100929.92;106515;1257;61247;-87
2023/09/20 03:52:52;;;;;;;8.60;5.20;;;;;;;23.66;45.84;100931.30;106041;1258;74481;-85
2023/09/20 03:55:19;;;;;;;21.90;5.90;;;;;;;23.64;45.81;100937.38;105859;1258;68371;-87
2023/09/20 03:57:48;;;;;;;10.10;5.20;;;;;;;23.60;45.88;100938.41;106076;1257;72407;-87
2023/09/20 04:00:24;;;;;;;7.10;4.90;;;;;;;23.62;45.88;100939.11;106209;1257;61351;-87
2023/09/20 04:02:54;;;;;;;11.10;5.80;;;;;;;23.67;45.62;100941.31;105982;1257;61263;-85
2023/09/20 04:05:22;;;;;;;7.80;5.40;;;;;;;23.68;45.51;100935.91;105978;1259;74587;-88
2023/09/20 04:08:08;;;;;;;9.50;5.60;;;;;;;23.66;45.55;100935.85;106041;1259;69408;-85
2023/09/20 04:10:36;;;;;;;7.40;5.00;;;;;;;23.70;45.50;100934.27;105862;1263;73016;-88
2023/09/20 04:13:03;;;;;;;9.80;5.60;;;;;;;23.86;45.27;100935.24;105965;1257;61305;-86
2023/09/20 04:15:30;;;;;;;10.30;5.40;;;;;;;23.83;45.21;100934.04;106135;1260;61896;-86
2023/09/20 04:17:57;;;;;;;19.00;6.40;;;;;;;23.84;45.18;100935.10;106114;1257;74553;-88
2023/09/20 04:20:25;;;;;;;7.10;4.40;;;;;;;23.77;45.51;100935.48;105938;1257;135263;-88
2023/09/20 04:22:52;;;;;;;10.70;5.10;;;;;;;23.72;45.74;100933.88;105913;1257;72484;-88
2023/09/20 04:25:20;;;;;;;10.30;5.00;;;;;;;23.73;45.76;100934.55;105821;1260;61136;-88
2023/09/20 04:27:47;;;;;;;28.20;6.90;;;;;;;23.67;46.14;100930.92;106180;1262;60444;-88
2023/09/20 04:30:14;;;;;;;11.60;5.00;;;;;;;23.75;46.22;100932.67;106044;1262;74423;-88
2023/09/20 04:32:43;;;;;;;9.50;4.80;;;;;;;23.82;46.01;100930.48;105767;1259;67224;-88
2023/09/20 04:35:20;;;;;;;7.60;4.90;;;;;;;23.87;46.09;100925.85;105956;1259;71120;-85
2023/09/20 04:37:47;;;;;;;18.40;5.20;;;;;;;23.90;46.14;100924.48;106133;1260;61124;-84
2023/09/20 04:40:14;;;;;;;13.10;5.30;;;;;;;23.83;46.49;100927.09;105906;1257;61164;-85
2023/09/20 04:42:42;;;;;;;11.40;5.30;;;;;;;23.85;46.53;100929.31;106130;1257;74550;-86
2023/09/20 04:45:12;;;;;;;8.90;4.70;;;;;;;23.97;46.33;100930.35;105881;1263;67212;-86
2023/09/20 04:47:40;;;;;;;7.00;4.80;;;;;;;24.04;46.25;100937.21;106170;1262;72914;-86
2023/09/20 04:50:08;;;;;;;14.00;5.20;;;;;;;24.17;45.88;100939.47;106011;1259;61140;-88
2023/09/20 04:52:35;;;;;;;8.60;4.70;;;;;;;24.27;45.68;100936.52;106052;1257;61292;-85
2023/09/20 04:55:03;;;;;;;6.30;4.50;;;;;;;24.29;45.86;100927.95;106014;1259;74746;-85
2023/09/20 04:57:31;;;;;;;8.90;4.70;;;;;;;24.29;45.84;100918.30;106040;1262;67460;-86
2023/09/20 04:59:59;;;;;;;11.30;5.30;;;;;;;24.34;45.85;100915.56;106004;1257;71184;-85
2023/09/20 05:02:29;;;;;;;7.50;4.40;;;;;;;24.48;45.45;100920.94;105967;1262;61852;-85
2023/09/20 05:04:57;;;;;;;11.40;5.20;;;;;;;24.42;45.39;100920.47;106038;1262;61211;-86
2023/09/20 05:07:26;;;;;;;7.80;4.80;;;;;;;24.58;45.60;100920.92;106010;1259;74701;-85
2023/09/20 05:09:56;;;;;;;8.20;4.60;;;;;;;24.66;45.63;100918.73;106521;1258;68542;-86
2023/09/20 05:12:25;;;;;;;10.10;4.80;;;;;;;24.69;45.35;100923.59;106055;1257;73004;-85
2023/09/20 05:14:54;;;;;;;7.60;4.80;;;;;;;24.76;45.27;100919.52;105994;1259;61342;-85
2023/09/20 05:17:22;;;;;;;8.20;5.00;;;;;;;24.87;44.94;100920.71;106225;1257;61273;-85
2023/09/20 05:19:49;;;;;;;7.20;5.00;;;;;;;24.96;44.74;100915.14;106131;1257;73363;-85
2023/09/20 05:22:16;;;;;;;8.50;5.50;;;;;;;24.96;44.75;100911.48;105960;1262;67309;-86
2023/09/20 05:24:43;;;;;;;8.10;5.40;;;;;;;24.99;44.90;100914.83;106039;1258;72560;-86
2023/09/20 05:27:10;;;;;;;10.60;5.20;;;;;;;25.01;44.63;100911.90;106043;1257;61311;-87
2023/09/20 05:29:37;;;;;;;9.30;5.20;;;;;;;25.08;44.82;100917.10;106077;1257;61346;-89
2023/09/20 05:32:04;;;;;;;7.10;5.30;;;;;;;25.13;44.74;100916.58;106153;1257;74700;-87
2023/09/20 05:34:34;;;;;;;6.90;5.20;;;;;;;25.17;44.49;100915.31;106075;1264;68683;-86
2023/09/20 05:37:01;;;;;;;7.50;5.20;;;;;;;25.25;44.50;100915.41;106043;1258;71459;-87
2023/09/20 05:39:29;;;;;;;10.40;4.70;;;;;;;25.32;44.40;100915.54;106157;1257;61276;-88
2023/09/20 05:41:59;;;;;;;9.60;4.70;;;;;;;25.43;44.44;100915.04;106103;1262;61251;-87
2023/09/20 05:44:26;;;;;;;7.10;5.20;;;;;;;25.44;44.72;100913.46;106079;1262;65797;-86
2023/09/20 05:46:54;;;;;;;9.90;4.70;;;;;;;25.56;44.33;100913.20;105999;1258;61282;-86
2023/09/20 05:49:22;;;;;;;10.60;5.70;;;;;;;25.56;44.40;100916.66;106161;1260;64166;-87
2023/09/20 05:51:52;;;;;;;11.10;5.20;;;;;;;25.64;44.53;100919.20;106067;1262;61367;-88
2023/09/20 05:54:19;;;;;;;7.80;4.80;;;;;;;25.79;44.28;100921.33;106191;1257;61154;-87
2023/09/20 05:56:46;;;;;;;6.80;5.10;;;;;;;25.82;44.29;100921.62;106303;1257;66801;-87
2023/09/20 05:59:14;;;;;;;8.90;5.60;;;;;;;25.88;44.11;100924.85;106217;1260;61137;-85
2023/09/20 06:01:41;;;;;;;13.80;5.70;;;;;;;26.07;43.93;100925.44;106157;1257;62650;-87
2023/09/20 06:04:09;;;;;;;14.00;5.50;;;;;;;26.12;44.26;100926.34;106255;1258;61176;-85
2023/09/20 06:06:39;;;;;;;10.20;5.40;;;;;;;26.17;44.25;100926.10;106069;1262;61222;-88
2023/09/20 06:09:08;;;;;;;9.10;5.70;;;;;;;26.30;43.85;100926.39;106144;1257;66020;-86
2023/09/20 06:11:35;;;;;;;7.50;5.10;;;;;;;26.46;43.65;100925.77;106004;1259;61100;-87
2023/09/20 06:14:05;;;;;;;10.70;5.00;;;;;;;26.57;43.27;100927.57;106130;1258;62589;-88
2023/09/20 06:16:33;;;;;;;12.20;6.20;;;;;;;26.65;43.00;100926.89;106268;1258;61209;-86
2023/09/20 06:19:01;;;;;;;9.30;5.70;;;;;;;26.82;43.07;100933.52;106293;1257;61184;-87
2023/09/20 06:21:34;;;;;;;10.20;5.90;;;;;;;26.94;43.15;100932.02;106096;1257;64620;-86
2023/09/20 06:24:02;;;;;;;11.30;5.40;;;;;;;27.04;43.33;100935.20;106135;1258;61240;-87
2023/09/20 06:26:29;;;;;;;7.80;5.40;;;;;;;27.23;43.09;100941.55;106349;1257;64507;-85
2023/09/20 06:28:56;;;;;;;8.80;5.10;;;;;;;27.43;42.68;100948.54;106184;1260;60183;-87
2023/09/20 06:31:23;;;;;;;11.60;5.60;;;;;;;27.58;42.31;100949.44;106349;1258;61180;-86
2023/09/20 06:33:51;;;;;;;14.60;5.80;;;;;;;27.68;41.79;100954.77;106262;1258;64483;-86
2023/09/20 06:36:18;;;;;;;9.40;5.70;;;;;;;27.76;41.79;100954.94;106139;1258;61362;-87
2023/09/20 06:38:46;;;;;;;11.00;5.90;;;;;;;27.80;41.26;100955.70;105983;1257;64097;-87
2023/09/20 06:41:15;;;;;;;9.30;6.00;;;;;;;27.80;41.47;100958.52;106061;1257;61210;-87
2023/09/20 06:43:42;;;;;;;8.40;5.50;;;;;;;27.82;41.61;100960.55;105946;1257;61360;-88
2023/09/20 06:46:09;;;;;;;15.10;6.50;;;;;;;27.85;41.52;100962.28;106172;1260;65839;-88
2023/09/20 06:48:37;;;;;;;11.40;5.90;;;;;;;27.98;41.35;100962.32;105884;1264;61494;-87
2023/09/20 06:51:04;;;;;;;9.70;6.20;;;;;;;28.02;41.25;100965.26;106131;1257;64336;-89
2023/09/20 06:53:31;;;;;;;10.20;5.90;;;;;;;28.00;41.18;100969.33;106032;1258;61259;-87
2023/09/20 06:56:01;;;;;;;10.00;5.80;;;;;;;28.02;41.13;100973.42;106086;1259;61183;-87
2023/09/20 06:58:28;;;;;;;9.90;6.50;;;;;;;27.94;41.55;100975.44;105995;1257;66083;-88
2023/09/20 07:00:55;;;;;;;17.10;6.70;;;;;;;27.89;41.68;100974.20;106337;1259;61353;-88
2023/09/20 07:03:22;;;;;;;12.20;6.10;;;;;;;27.81;42.10;100965.91;106029;1257;64035;-87
2023/09/20 07:05:51;;;;;;;11.70;6.20;;;;;;;27.88;42.02;100965.27;105925;1257;61369;-89
2023/09/20 07:08:19;;;;;;;11.90;6.60;;;;;;;27.95;42.18;100967.04;106082;1262;61238;-88
2023/09/20 07:10:46;;;;;;;11.00;6.10;;;;;;;27.97;42.32;100972.42;105981;1261;66014;-87
2023/09/20 07:13:16;;;;;;;11.00;6.40;;;;;;;28.00;42.50;100972.85;106003;1262;61037;-87
2023/09/20 07:15:43;;;;;;;9.50;6.00;;;;;;;28.01;42.41;100975.67;105938;1259;62904;-87
2023/09/20 07:18:13;;;;;;;10.20;6.50;;;;;;;28.06;42.50;100976.60;106340;1257;61344;-86
2023/09/20 07:20:41;;;;;;;8.90;6.30;;;;;;;28.18;42.45;100975.42;106345;1262;61325;-85
2023/09/20 07:23:09;;;;;;;11.20;6.20;;;;;;;28.25;42.33;100979.91;106321;1257;64777;-86
2023/09/20 07:25:39;;;;;;;11.80;6.50;;;;;;;28.31;42.62;100976.36;106211;1258;61189;-85
2023/09/20 07:28:07;;;;;;;13.70;6.00;;;;;;;28.23;42.68;100972.83;106020;1257;64034;-86
2023/09/20 07:30:39;;;;;;;11.50;5.40;;;;;;;28.24;42.81;100977.98;106180;1257;61258;-87
2023/09/20 07:33:11;;;;;;;;;;;;;;;28.29;42.98;100979.06;106273;1259;61222;-87
2023/09/20 07:35:47;;;;;;;10.70;6.40;;;;;;;28.40;43.08;100975.55;106131;1258;65783;-87
2023/09/20 07:38:20;;;;;;;9.20;6.10;;;;;;;28.47;43.34;100976.27;106098;1258;61342;-88
2023/09/20 07:40:50;;;;;;;10.60;6.00;;;;;;;28.56;43.31;100975.39;106174;1260;64051;-87
2023/09/20 07:43:18;;;;;;;8.70;6.40;;;;;;;28.76;43.14;100973.52;106016;1258;61314;-87
2023/09/20 07:45:56;;;;;;;8.80;5.90;;;;;;;28.96;42.79;100964.40;106163;1257;61341;-87
2023/09/20 07:48:24;;;;;;;11.10;5.90;;;;;;;29.18;42.17;100964.95;106198;1257;67207;-87
2023/09/20 07:50:51;;;;;;;13.10;6.10;;;;;;;29.42;41.60;100964.48;106074;1257;61337;-86
2023/09/20 07:53:20;;;;;;;8.40;6.00;;;;;;;29.60;41.18;100961.09;106277;1257;72673;-88
2023/09/20 07:56:01;;;;;;;9.50;5.30;;;;;;;29.65;40.68;100963.85;105926;1257;61339;-87
2023/09/20 07:58:29;;;;;;;8.00;5.70;;;;;;;29.68;40.42;100966.94;106095;1257;61348;-88
2023/09/20 08:00:56;;;;;;;12.90;6.00;;;;;;;29.90;40.17;100967.95;106070;1257;66008;-89
2023/09/20 08:03:23;;;;;;;10.20;5.70;;;;;;;30.02;39.97;100967.89;106282;1258;61249;-87
2023/09/20 08:05:53;;;;;;;11.10;5.50;;;;;;;30.08;39.85;100970.23;106105;1257;65403;-89
2023/09/20 08:08:21;;;;;;;6.70;5.30;;;;;;;30.05;39.51;100968.14;106122;1257;61327;-89
2023/09/20 08:10:48;;;;;;;9.10;4.90;;;;;;;30.05;38.94;100968.69;106039;1257;61141;-87
2023/09/20 08:13:33;;;;;;;8.90;5.20;;;;;;;30.12;38.78;100969.20;106056;1259;67061;-87
2023/09/20 08:16:04;;;;;;;8.60;5.30;;;;;;;30.30;38.55;100966.80;106170;1258;61206;-88
2023/09/20 08:21:17;;;;;;;10.00;5.00;;;;;;;30.54;37.15;100962.95;106072;1257;61104;-87
2023/09/20 10:09:45;;;;;;;12.30;5.30;;;;;;;31.90;33.88;100943.19;106035;1260;61195;-88
2023/09/20 10:12:14;;;;;;;9.20;5.60;;;;;;;31.99;33.41;100939.59;106076;1262;68173;-87
2023/09/20 10:14:42;;;;;;;9.20;5.90;;;;;;;32.10;33.35;100941.05;106040;1259;61265;-87
2023/09/20 10:17:20;;;;;;;9.50;4.70;;;;;;;32.25;33.22;100937.95;106296;1259;64564;-87
2023/09/20 10:19:52;;;;;;;8.30;5.40;;;;;;;32.36;32.71;100934.94;106497;1262;61219;-88
2023/09/20 10:22:21;;;;;;;12.10;5.60;;;;;;;32.41;32.24;100932.47;106353;1258;61330;-88
2023/09/20 10:24:53;;;;;;;9.90;5.20;;;;;;;32.45;32.28;100931.30;106172;1257;66047;-88
2023/09/20 10:27:21;;;;;;;10.40;5.10;;;;;;;32.60;31.97;100928.27;106491;1261;61295;-88
2023/09/20 10:30:01;;;;;;;8.90;4.90;;;;;;;32.54;31.57;100921.86;106289;1257;65119;-88
2023/09/20 10:32:32;;;;;;;10.80;5.20;;;;;;;32.53;31.49;100919.29;106117;1259;61353;-87
2023/09/20 10:35:22;;;;;;;14.30;5.50;;;;;;;32.69;31.20;100919.52;106237;1257;61089;-87
2023/09/20 10:38:09;;;;;;;7.60;4.90;;;;;;;32.88;31.23;100920.05;106161;1262;66696;-87
2023/09/20 10:40:46;;;;;;;5.90;4.50;;;;;;;33.07;31.01;100917.91;106213;1259;61135;-88
2023/09/20 10:43:13;;;;;;;8.20;4.90;;;;;;;33.22;30.72;100916.34;106196;1259;63827;-87
2023/09/20 10:45:41;;;;;;;10.20;5.10;;;;;;;33.40;30.46;100914.64;106187;1257;61296;-87
2023/09/20 10:48:14;;;;;;;11.30;4.80;;;;;;;33.57;29.98;100914.59;106178;1259;61161;-87
2023/09/20 10:50:45;;;;;;;11.00;4.70;;;;;;;33.59;29.84;100914.73;106042;1259;65832;-88
2023/09/20 10:53:12;;;;;;;11.80;5.00;;;;;;;33.58;29.47;100913.29;106104;1259;61570;-88
2023/09/20 10:55:40;;;;;;;6.90;4.20;;;;;;;33.68;29.06;100912.01;106073;1257;63726;-88
2023/09/20 10:58:07;;;;;;;9.70;4.80;;;;;;;33.72;28.88;100910.73;106284;1257;61132;-86
2023/09/20 11:00:35;;;;;;;8.80;4.60;;;;;;;33.78;28.80;100909.41;106179;1257;61268;-88
2023/09/20 11:03:08;;;;;;;8.10;4.50;;;;;;;33.81;28.44;100909.13;106089;1262;66813;-86
2023/09/20 11:05:36;;;;;;;9.30;4.40;;;;;;;33.85;28.54;100904.54;106122;1259;61446;-88
2023/09/20 11:08:07;;;;;;;8.20;4.60;;;;;;;33.86;28.32;100902.27;106354;1262;64010;-87
2023/09/20 11:10:35;;;;;;;8.40;4.40;;;;;;;33.96;28.00;100896.35;106081;1259;61292;-86
2023/09/20 11:13:08;;;;;;;13.20;4.50;;;;;;;34.00;28.03;100897.98;106107;1260;61360;-88
2023/09/20 11:15:47;;;;;;;12.10;4.40;;;;;;;34.01;28.27;100896.09;106141;1262;66040;-88
2023/09/20 11:18:14;;;;;;;6.10;3.60;;;;;;;34.14;28.22;100891.93;106173;1257;61339;-89
2023/09/20 11:20:43;;;;;;;7.00;4.00;;;;;;;34.26;27.90;100888.41;106045;1258;65097;-89
2023/09/20 11:23:10;;;;;;;9.20;4.10;;;;;;;34.33;27.46;100888.43;106094;1262;61233;-88
2023/09/20 11:25:37;;;;;;;5.80;4.10;;;;;;;34.24;27.24;100888.77;106086;1262;61139;-88
2023/09/20 11:28:07;;;;;;;11.10;4.70;;;;;;;34.15;27.20;100888.03;106157;1261;67008;-88
2023/09/20 11:30:35;;;;;;;13.90;4.90;;;;;;;34.07;27.38;100888.57;106199;1263;61354;-89
2023/09/20 11:33:02;;;;;;;7.40;4.80;;;;;;;34.02;27.33;100885.40;106089;1262;64844;-88
2023/09/20 11:35:39;;;;;;;6.20;3.80;;;;;;;33.96;27.51;100888.81;106063;1260;61292;-88
2023/09/20 11:38:10;;;;;;;10.40;4.30;;;;;;;33.92;27.94;100884.42;106066;1262;61357;-88
2023/09/20 11:40:41;;;;;;;10.60;3.80;;;;;;;33.86;28.00;100882.73;106214;1262;65727;-87
2023/09/20 11:43:14;;;;;;;6.60;4.20;;;;;;;33.77;27.97;100889.76;106370;1259;61226;-87
2023/09/20 11:45:41;;;;;;;6.40;4.30;;;;;;;33.73;28.13;100884.24;105949;1258;62572;-87
2023/09/20 11:48:31;;;;;;;7.70;3.80;;;;;;;33.65;28.35;100878.78;106123;1260;61219;-87
2023/09/20 11:51:01;;;;;;;7.90;3.60;;;;;;;33.53;28.28;100877.40;106102;1262;61357;-88
2023/09/20 11:53:32;;;;;;;6.90;3.60;;;;;;;33.44;28.18;100877.53;106398;1259;66982;-87
2023/09/20 11:56:03;;;;;;;5.70;3.90;;;;;;;33.39;28.40;100876.23;106134;1260;61349;-87
2023/09/20 11:58:34;;;;;;;8.50;3.90;;;;;;;33.31;28.53;100870.66;106183;1257;63939;-87
2023/09/20 12:01:08;;;;;;;7.00;3.30;;;;;;;33.23;28.65;100872.23;106215;1258;61180;-87
2023/09/20 12:03:35;;;;;;;6.70;3.70;;;;;;;33.23;28.63;100874.58;106088;1260;61260;-87
2023/09/20 12:06:03;;;;;;;8.70;3.60;;;;;;;33.29;28.66;100874.50;106176;1260;65713;-88
2023/09/20 12:08:34;;;;;;;6.70;4.10;;;;;;;33.33;28.49;100870.01;106219;1259;61188;-88
2023/09/20 12:11:01;;;;;;;4.40;3.10;;;;;;;33.38;28.47;100866.45;106190;1262;64242;-88
2023/09/20 12:13:29;;;;;;;5.50;4.00;;;;;;;33.43;28.55;100868.07;105956;1260;61250;-88
2023/09/20 12:15:56;;;;;;;7.40;3.30;;;;;;;33.45;28.56;100864.47;106257;1258;61247;-88
2023/09/20 12:18:27;;;;;;;11.10;4.60;;;;;;;33.48;28.49;100864.03;106238;1258;67057;-89
2023/09/20 12:20:55;;;;;;;10.90;5.60;;;;;;;33.50;28.71;100866.04;106106;1262;61166;-88
2023/09/20 12:23:22;;;;;;;8.60;4.10;;;;;;;33.50;28.77;100866.20;106208;1262;64180;-89
2023/09/20 12:25:50;;;;;;;9.60;4.10;;;;;;;33.45;28.91;100861.49;106255;1256;61715;-90
2023/09/20 12:28:17;;;;;;;7.10;4.10;;;;;;;33.34;29.12;100859.55;106150;1260;61813;-87
2023/09/20 12:30:44;;;;;;;9.00;4.00;;;;;;;33.27;29.31;100861.27;106234;1258;65872;-89
2023/09/20 12:33:11;;;;;;;13.40;4.50;;;;;;;33.26;29.61;100858.75;106145;1260;61324;-89
2023/09/20 12:35:40;;;;;;;8.10;3.90;;;;;;;33.25;29.40;100857.81;106273;1258;64875;-88
2023/09/20 12:38:08;;;;;;;18.80;4.60;;;;;;;33.27;29.71;100857.05;106133;1257;61357;-88
2023/09/20 12:40:36;;;;;;;17.20;4.40;;;;;;;33.34;30.52;100860.59;106034;1259;61338;-89
2023/09/20 12:43:03;;;;;;;21.50;5.00;;;;;;;33.31;30.50;100854.25;106301;1260;66960;-88
2023/09/20 12:45:31;;;;;;;18.80;5.10;;;;;;;33.33;30.52;100853.50;106178;1262;61376;-89
2023/09/20 12:47:58;;;;;;;13.60;4.20;;;;;;;33.35;31.16;100852.41;106247;1262;64906;-88
2023/09/20 12:50:26;;;;;;;6.90;4.00;;;;;;;33.35;31.63;100851.61;106051;1258;61241;-88
2023/09/20 12:52:54;;;;;;;8.00;3.90;;;;;;;33.34;31.93;100849.19;106266;1259;61254;-88
2023/09/20 12:55:21;;;;;;;9.60;4.30;;;;;;;33.32;31.78;100847.77;106190;1259;67118;-88
2023/09/20 12:57:48;;;;;;;8.70;4.50;;;;;;;33.31;31.90;100841.86;106068;1262;61324;-88
2023/09/20 13:00:18;;;;;;;7.70;4.70;;;;;;;33.31;31.82;100839.21;106198;1262;65501;-88
2023/09/20 13:03:07;;;;;;;10.40;3.80;;;;;;;33.28;31.70;100840.30;106387;1260;61356;-88
2023/09/20 13:05:36;;;;;;;7.70;3.70;;;;;;;33.37;31.28;100839.19;106090;1257;61254;-88
2023/09/20 13:08:07;;;;;;;8.30;3.40;;;;;;;33.39;30.48;100837.54;106231;1259;65741;-88
2023/09/20 13:10:34;;;;;;;5.70;3.30;;;;;;;33.44;30.05;100836.25;106155;1262;61270;-89
2023/09/20 13:13:03;;;;;;;7.00;3.30;;;;;;;33.47;29.74;100836.20;106195;1259;65305;-88